Time;durP1;ratioP1;P1;durP2;ratioP2;P2;SDS_P1;SDS_P2;PMS_P1;PMS_P2;Temp;Humidity;BMP_temperature;BMP_pressure;BME280_temperature;BME280_humidity;BME280_pressure;Samples;Min_cycle;Max_cycle;Signal;HPM_P1;HPM_P2
2021/06/18 00:00:01;;;;;;;7.50;2.80;;;16.50;99.90;;;;;;4993471;28;20045;-72
2021/06/18 00:02:27;;;;;;;8.48;3.03;;;16.40;99.90;;;;;;4993280;28;20028;-72
2021/06/18 00:04:53;;;;;;;7.75;2.80;;;16.40;99.90;;;;;;4993677;28;20041;-72
2021/06/18 00:07:19;;;;;;;6.47;3.28;;;16.30;99.90;;;;;;4991931;28;20479;-72
2021/06/18 00:09:45;;;;;;;6.38;2.80;;;16.30;99.90;;;;;;4993367;28;20054;-72
2021/06/18 00:12:12;;;;;;;4.47;2.58;;;16.20;99.90;;;;;;4991955;28;20546;-70
2021/06/18 00:14:38;;;;;;;6.47;3.10;;;16.20;99.90;;;;;;4993177;28;20509;-70
2021/06/18 00:17:04;;;;;;;4.35;2.70;;;16.10;99.90;;;;;;4993213;28;20042;-70
2021/06/18 00:19:30;;;;;;;5.68;2.67;;;16.10;99.90;;;;;;4993112;28;20084;-70
2021/06/18 00:21:55;;;;;;;7.20;2.90;;;16.10;99.90;;;;;;4993172;28;20537;-70
2021/06/18 00:24:21;;;;;;;7.00;3.10;;;16.10;99.90;;;;;;4993333;28;20172;-70
2021/06/18 00:26:47;;;;;;;6.05;3.05;;;16.00;99.90;;;;;;4993475;28;20386;-70
2021/06/18 00:29:13;;;;;;;5.82;3.00;;;15.90;99.90;;;;;;4993402;28;20441;-72
2021/06/18 00:31:38;;;;;;;5.93;2.95;;;15.80;99.90;;;;;;4992943;28;20506;-72
2021/06/18 00:34:04;;;;;;;8.35;3.00;;;15.80;99.90;;;;;;4992941;28;20030;-72
2021/06/18 00:36:30;;;;;;;4.78;2.75;;;15.80;99.90;;;;;;4992816;28;20026;-72
2021/06/18 00:38:55;;;;;;;12.65;3.13;;;15.80;99.90;;;;;;4992831;28;20050;-72
2021/06/18 00:41:21;;;;;;;10.15;3.20;;;15.70;99.90;;;;;;4992664;28;20034;-72
2021/06/18 00:43:54;;;;;;;6.97;3.10;;;15.70;99.90;;;;;;4992832;28;20045;-72
2021/06/18 00:46:21;;;;;;;7.70;2.53;;;15.70;99.90;;;;;;4992852;28;20037;-72
2021/06/18 00:48:48;;;;;;;5.43;2.90;;;15.60;99.90;;;;;;4992769;28;20102;-72
2021/06/18 00:51:14;;;;;;;6.65;2.88;;;15.60;99.90;;;;;;4992745;28;20027;-72
2021/06/18 00:53:41;;;;;;;11.75;3.28;;;15.60;99.90;;;;;;4992358;28;20422;-72
2021/06/18 00:56:07;;;;;;;8.88;2.95;;;15.60;99.90;;;;;;4991400;28;20114;-72
2021/06/18 00:58:32;;;;;;;6.38;2.88;;;15.70;99.90;;;;;;4992227;28;20118;-71
2021/06/18 01:00:58;;;;;;;5.60;3.00;;;15.70;99.90;;;;;;4992623;28;20053;-71
2021/06/18 01:03:24;;;;;;;7.70;3.17;;;15.60;99.90;;;;;;4990671;28;20022;-71
2021/06/18 01:05:53;;;;;;;7.15;3.15;;;15.60;99.90;;;;;;4992612;28;20147;-71
2021/06/18 01:08:47;;;;;;;8.30;2.83;;;15.50;99.90;;;;;;4992539;28;20077;-71
2021/06/18 01:11:41;;;;;;;5.85;2.65;;;15.50;99.90;;;;;;4991038;28;20069;-71
2021/06/18 01:14:18;;;;;;;5.78;2.88;;;15.50;99.90;;;;;;4992383;28;20475;-72
2021/06/18 01:16:52;;;;;;;5.80;2.90;;;15.50;99.90;;;;;;4992453;28;20033;-72
2021/06/18 01:53:09;;;;;;;8.38;3.30;;;15.50;99.90;;;;;;5439097;23;20077;-71
2021/06/18 01:55:36;;;;;;;5.10;2.70;;;15.60;99.90;;;;;;5031559;28;20037;-71
2021/06/18 01:58:04;;;;;;;6.25;3.47;;;15.60;99.90;;;;;;5031266;28;20029;-72
2021/06/18 02:00:34;;;;;;;12.18;3.28;;;15.60;99.90;;;;;;5031426;28;20034;-72
2021/06/18 02:03:04;;;;;;;;;;;15.60;99.90;;;;;;5032013;28;20032;-73
2021/06/18 02:05:33;;;;;;;5.78;2.78;;;15.60;99.90;;;;;;5031829;28;19952;-72
2021/06/18 02:08:00;;;;;;;6.00;2.80;;;15.60;99.90;;;;;;5031395;28;20025;-73
2021/06/18 02:10:26;;;;;;;10.80;2.97;;;15.70;99.90;;;;;;5031495;28;20436;-71
2021/06/18 02:12:54;;;;;;;7.22;2.70;;;15.70;99.90;;;;;;5031361;28;20017;-71
2021/06/18 02:15:21;;;;;;;9.15;3.40;;;15.70;99.90;;;;;;5032631;28;20496;-72
2021/06/18 02:17:49;;;;;;;10.43;2.90;;;15.70;99.90;;;;;;5034848;28;20029;-72
2021/06/18 02:20:15;;;;;;;5.95;2.97;;;15.70;99.90;;;;;;5034722;28;20033;-71
2021/06/18 02:22:45;;;;;;;6.85;3.35;;;15.70;99.90;;;;;;5034636;28;20104;-71
2021/06/18 02:25:12;;;;;;;8.80;3.20;;;15.70;99.90;;;;;;5034665;28;20108;-71
2021/06/18 02:27:40;;;;;;;10.82;3.03;;;15.70;99.90;;;;;;5034822;28;20087;-71
2021/06/18 02:30:07;;;;;;;6.15;3.00;;;15.70;99.90;;;;;;5034448;28;20209;-73
2021/06/18 02:32:35;;;;;;;6.55;3.10;;;15.80;99.90;;;;;;5034465;28;20033;-73
2021/06/18 02:35:02;;;;;;;6.22;2.80;;;15.80;99.90;;;;;;5034366;28;20515;-72
2021/06/18 02:37:27;;;;;;;5.93;2.80;;;15.80;99.90;;;;;;5034406;28;20064;-73
2021/06/18 02:39:54;;;;;;;6.15;3.20;;;15.80;99.90;;;;;;5034429;28;20061;-73
2021/06/18 02:42:20;;;;;;;4.93;2.63;;;15.70;99.90;;;;;;5034125;28;20017;-73
2021/06/18 02:44:46;;;;;;;6.65;2.95;;;15.70;99.90;;;;;;5016517;28;20068;-73
2021/06/18 02:47:21;;;;;;;7.15;3.13;;;15.70;99.90;;;;;;5034464;28;20083;-73
2021/06/18 02:49:52;;;;;;;8.50;2.95;;;15.70;99.90;;;;;;5034538;28;20061;-72
2021/06/18 02:52:54;;;;;;;7.07;2.88;;;15.70;99.90;;;;;;5033828;28;20045;-73
2021/06/18 02:55:41;;;;;;;9.05;3.35;;;15.70;99.90;;;;;;5016410;28;20030;-74
2021/06/18 02:58:15;;;;;;;6.70;3.00;;;15.70;99.90;;;;;;5033862;28;20030;-75
2021/06/18 03:00:42;;;;;;;6.30;3.03;;;15.70;99.90;;;;;;5033907;28;20095;-75
2021/06/18 03:03:11;;;;;;;7.85;3.38;;;15.70;99.90;;;;;;5033741;28;20022;-75
2021/06/18 03:05:40;;;;;;;7.10;3.25;;;15.70;99.90;;;;;;5033884;28;20112;-75
2021/06/18 03:08:09;;;;;;;5.55;2.85;;;15.70;99.90;;;;;;5033695;28;20022;-74
2021/06/18 03:10:41;;;;;;;9.00;3.30;;;15.70;99.90;;;;;;5034117;28;20083;-74
2021/06/18 03:13:12;;;;;;;5.68;3.15;;;15.70;99.90;;;;;;5033582;28;20045;-72
2021/06/18 03:15:42;;;;;;;6.30;3.22;;;15.70;99.90;;;;;;5033824;28;20519;-72
2021/06/18 03:18:10;;;;;;;8.02;3.22;;;15.70;99.90;;;;;;5033408;28;20025;-72
2021/06/18 03:20:37;;;;;;;7.93;3.15;;;15.70;99.90;;;;;;5033555;28;20041;-72
2021/06/18 03:23:07;;;;;;;4.93;3.28;;;15.70;99.90;;;;;;5033644;28;20026;-72
2021/06/18 03:25:35;;;;;;;8.23;3.03;;;15.70;99.90;;;;;;5033226;28;20057;-72
2021/06/18 03:28:02;;;;;;;7.63;3.22;;;15.70;99.90;;;;;;5033550;28;20018;-72
2021/06/18 03:30:29;;;;;;;9.02;2.95;;;15.70;99.90;;;;;;5033518;28;20096;-72
2021/06/18 03:32:56;;;;;;;6.45;2.78;;;15.60;99.90;;;;;;5033465;28;20052;-71
2021/06/18 03:35:23;;;;;;;7.53;3.38;;;15.60;99.90;;;;;;5015754;28;20018;-72
2021/06/18 03:37:51;;;;;;;6.78;3.03;;;15.60;99.90;;;;;;5033447;28;20075;-71
2021/06/18 03:40:20;;;;;;;6.18;2.85;;;15.60;99.90;;;;;;5033388;28;20176;-72
2021/06/18 03:42:48;;;;;;;8.48;3.17;;;15.60;99.90;;;;;;5033263;28;20518;-71
2021/06/18 03:45:15;;;;;;;10.20;3.15;;;15.50;99.90;;;;;;5015429;28;20032;-71
2021/06/18 03:47:42;;;;;;;9.45;3.03;;;15.50;99.90;;;;;;5033229;28;20488;-71
2021/06/18 03:50:09;;;;;;;7.43;2.83;;;15.50;99.90;;;;;;5033223;28;20079;-72
2021/06/18 03:52:35;;;;;;;10.05;3.65;;;15.40;99.90;;;;;;5032855;28;20139;-72
2021/06/18 03:55:03;;;;;;;6.78;3.10;;;15.40;99.90;;;;;;5033045;28;20029;-72
2021/06/18 03:57:30;;;;;;;12.15;3.65;;;15.40;99.90;;;;;;5032760;28;20029;-71
2021/06/18 03:59:58;;;;;;;7.78;3.03;;;15.30;99.90;;;;;;5032877;28;20091;-72
2021/06/18 04:02:26;;;;;;;8.65;3.47;;;15.30;99.90;;;;;;5015008;28;20022;-71
2021/06/18 04:04:53;;;;;;;9.80;3.90;;;15.30;99.90;;;;;;5032997;28;20033;-71
2021/06/18 04:07:20;;;;;;;7.85;3.33;;;15.30;99.90;;;;;;5032586;28;20078;-71
2021/06/18 04:09:46;;;;;;;8.55;3.40;;;15.30;99.90;;;;;;5032670;28;20021;-74
2021/06/18 04:12:14;;;;;;;7.93;3.40;;;15.30;99.90;;;;;;5032458;28;20109;-74
2021/06/18 04:14:41;;;;;;;7.57;3.60;;;15.30;99.90;;;;;;5032530;28;20587;-74
2021/06/18 04:17:07;;;;;;;9.32;3.53;;;15.30;99.90;;;;;;5032438;28;20036;-74
2021/06/18 04:19:34;;;;;;;9.43;3.47;;;15.40;99.90;;;;;;5032382;28;20483;-74
2021/06/18 04:22:04;;;;;;;8.18;3.65;;;15.40;99.90;;;;;;5032434;28;20120;-74
2021/06/18 04:24:31;;;;;;;10.18;3.75;;;15.40;99.90;;;;;;5032389;28;20022;-74
2021/06/18 04:26:57;;;;;;;7.07;3.88;;;15.30;99.90;;;;;;5032506;28;20028;-75
2021/06/18 04:29:23;;;;;;;6.50;3.63;;;15.40;99.90;;;;;;5014480;28;20033;-74
2021/06/18 04:31:49;;;;;;;7.13;3.55;;;15.40;99.90;;;;;;5032331;28;20504;-71
2021/06/18 04:34:15;;;;;;;10.68;3.97;;;15.40;99.90;;;;;;5032109;28;20066;-75
2021/06/18 04:36:41;;;;;;;8.27;3.90;;;15.40;99.90;;;;;;5032081;28;20080;-72
2021/06/18 04:39:08;;;;;;;10.15;4.22;;;15.40;99.90;;;;;;5031578;28;20030;-73
2021/06/18 04:41:35;;;;;;;6.68;3.80;;;15.40;99.90;;;;;;5032146;28;20061;-71
2021/06/18 04:44:01;;;;;;;9.18;4.38;;;15.50;99.90;;;;;;5032056;28;20029;-68
2021/06/18 04:46:27;;;;;;;7.22;3.95;;;15.50;99.90;;;;;;5032146;28;20029;-69
2021/06/18 04:48:53;;;;;;;11.02;4.50;;;15.50;99.90;;;;;;5032062;28;20104;-71
2021/06/18 04:51:19;;;;;;;10.30;4.53;;;15.40;99.90;;;;;;5032203;28;20018;-67
2021/06/18 04:53:46;;;;;;;10.02;4.32;;;15.40;99.90;;;;;;5031728;28;20051;-72
2021/06/18 04:56:12;;;;;;;7.95;4.10;;;15.40;99.90;;;;;;5032056;28;20512;-70
2021/06/18 04:58:38;;;;;;;12.40;4.28;;;15.40;99.90;;;;;;5032018;28;20029;-70
2021/06/18 05:01:05;;;;;;;10.55;4.53;;;15.40;99.90;;;;;;5031960;28;20121;-70
2021/06/18 05:03:31;;;;;;;12.27;4.95;;;15.40;99.90;;;;;;5031760;28;20105;-71
2021/06/18 05:05:57;;;;;;;14.98;4.80;;;15.50;99.90;;;;;;5031873;28;20025;-72
2021/06/18 05:08:23;;;;;;;9.52;3.92;;;15.50;99.90;;;;;;5031903;28;20432;-72
2021/06/18 05:10:49;;;;;;;12.25;4.20;;;15.80;99.90;;;;;;5022315;28;20096;-72
2021/06/18 05:13:14;;;;;;;7.15;3.80;;;15.90;99.90;;;;;;5012202;28;20385;-72
2021/06/18 05:15:40;;;;;;;8.30;4.07;;;15.90;99.90;;;;;;5012094;28;20084;-72
2021/06/18 05:18:06;;;;;;;8.80;4.10;;;15.90;99.90;;;;;;5011996;28;20029;-72
2021/06/18 05:20:31;;;;;;;11.75;3.97;;;16.00;99.90;;;;;;5011866;28;20536;-72
2021/06/18 05:22:57;;;;;;;9.00;3.65;;;16.00;99.90;;;;;;4994182;28;20057;-77
2021/06/18 05:25:23;;;;;;;9.25;3.90;;;15.90;99.90;;;;;;5011993;28;20026;-85
2021/06/18 05:27:49;;;;;;;8.07;4.10;;;15.80;99.90;;;;;;4994325;28;20053;-81
2021/06/18 05:30:16;;;;;;;11.63;4.45;;;15.80;99.90;;;;;;4994130;28;20030;-80
2021/06/18 05:32:43;;;;;;;9.95;4.57;;;15.70;99.90;;;;;;5011854;28;20389;-80
2021/06/18 05:35:09;;;;;;;13.35;4.72;;;15.60;99.90;;;;;;5011857;28;20026;-81
2021/06/18 05:37:34;;;;;;;9.40;3.92;;;15.50;99.90;;;;;;4994247;28;20030;-80
2021/06/18 05:40:00;;;;;;;11.85;4.18;;;15.50;99.90;;;;;;5011810;28;20042;-81
2021/06/18 05:42:26;;;;;;;9.40;4.20;;;15.50;99.90;;;;;;5011648;28;20111;-81
2021/06/18 05:44:52;;;;;;;9.13;4.38;;;15.50;99.90;;;;;;5012093;28;20485;-81
2021/06/18 05:47:17;;;;;;;8.75;4.00;;;15.50;99.90;;;;;;5011935;28;20435;-81
2021/06/18 05:49:43;;;;;;;7.82;4.03;;;15.50;99.90;;;;;;5025804;28;20021;-83
2021/06/18 05:52:09;;;;;;;8.45;4.60;;;15.40;99.90;;;;;;5034850;28;20041;-85
2021/06/18 05:54:35;;;;;;;8.35;4.65;;;15.40;99.90;;;;;;5035060;28;20021;-79
2021/06/18 05:57:00;;;;;;;8.02;4.28;;;15.40;99.90;;;;;;5035186;28;20366;-80
2021/06/18 05:59:26;;;;;;;6.07;4.65;;;15.40;99.90;;;;;;5034882;28;20033;-80
2021/06/18 06:01:52;;;;;;;72.30;13.10;;;15.40;99.90;;;;;;5035077;28;20396;-76
2021/06/18 06:04:17;;;;;;;9.90;5.28;;;15.40;99.90;;;;;;5017210;28;20021;-78
2021/06/18 06:06:43;;;;;;;39.05;6.38;;;15.40;99.90;;;;;;5035314;28;20117;-79
2021/06/18 06:09:09;;;;;;;11.60;4.32;;;15.50;99.90;;;;;;5035200;28;20472;-82
2021/06/18 06:11:35;;;;;;;9.20;4.57;;;15.40;99.90;;;;;;5034790;28;20584;-80
2021/06/18 06:14:02;;;;;;;7.22;4.28;;;15.40;99.90;;;;;;5034792;28;20067;-82
2021/06/18 06:16:29;;;;;;;7.50;4.55;;;15.40;99.90;;;;;;5034987;28;20034;-77
2021/06/18 06:18:55;;;;;;;7.00;4.32;;;15.40;99.90;;;;;;5034651;28;20068;-76
2021/06/18 06:21:21;;;;;;;8.30;4.63;;;15.40;99.90;;;;;;5034548;28;20060;-74
2021/06/18 06:23:48;;;;;;;11.73;5.05;;;15.40;99.90;;;;;;5016583;28;20508;-74
2021/06/18 06:26:14;;;;;;;12.15;4.97;;;15.30;99.90;;;;;;5034586;28;20026;-73
2021/06/18 06:28:40;;;;;;;12.05;5.43;;;15.20;99.90;;;;;;5016976;28;20082;-73
2021/06/18 06:31:06;;;;;;;11.65;5.90;;;15.30;99.90;;;;;;5034963;28;20384;-73
2021/06/18 06:33:31;;;;;;;10.85;4.63;;;15.30;99.90;;;;;;5034559;28;20018;-74
2021/06/18 06:35:57;;;;;;;11.23;5.03;;;15.20;99.90;;;;;;5034525;28;20030;-73
2021/06/18 06:38:23;;;;;;;7.72;3.95;;;15.00;99.90;;;;;;5034295;28;20472;-73
2021/06/18 06:40:52;;;;;;;11.93;5.15;;;15.10;99.90;;;;;;5034366;28;20091;-73
2021/06/18 06:43:20;;;;;;;9.32;4.93;;;15.20;99.90;;;;;;5034363;28;20079;-73
2021/06/18 06:45:46;;;;;;;7.70;4.40;;;15.10;99.90;;;;;;5034379;28;20037;-77
2021/06/18 06:48:12;;;;;;;8.45;4.88;;;14.90;99.90;;;;;;5034231;28;20026;-74
2021/06/18 06:50:38;;;;;;;10.48;4.38;;;14.80;99.90;;;;;;5034201;28;20132;-74
2021/06/18 06:53:06;;;;;;;9.30;4.60;;;14.80;99.90;;;;;;5033875;28;20041;-73
2021/06/18 06:55:32;;;;;;;9.68;4.90;;;14.80;99.90;;;;;;5016232;28;20112;-73
2021/06/18 06:57:58;;;;;;;8.05;4.57;;;14.80;99.90;;;;;;5034118;28;20565;-73
2021/06/18 07:00:24;;;;;;;11.48;4.97;;;14.80;99.90;;;;;;5032998;28;20095;-72
2021/06/18 07:02:50;;;;;;;13.65;5.35;;;14.80;99.90;;;;;;5033820;28;20102;-73
2021/06/18 07:05:15;;;;;;;10.55;5.03;;;14.80;99.90;;;;;;5015949;28;20025;-74
2021/06/18 07:07:41;;;;;;;10.60;4.63;;;14.80;99.90;;;;;;5033874;28;20026;-73
2021/06/18 07:10:07;;;;;;;8.77;4.55;;;14.70;99.90;;;;;;5033808;28;20099;-73
2021/06/18 07:12:33;;;;;;;7.47;4.55;;;14.70;99.90;;;;;;5033901;28;20061;-72
2021/06/18 07:14:59;;;;;;;8.38;4.20;;;14.70;99.90;;;;;;5033620;28;20055;-72
2021/06/18 07:17:25;;;;;;;10.57;4.85;;;14.60;99.90;;;;;;5033632;28;20542;-73
2021/06/18 07:19:53;;;;;;;12.05;4.85;;;14.70;99.90;;;;;;5033767;28;20426;-73
2021/06/18 07:22:21;;;;;;;9.55;4.95;;;14.70;99.90;;;;;;5030512;28;20358;-72
2021/06/18 07:24:48;;;;;;;12.32;5.07;;;14.70;99.90;;;;;;5018524;28;20029;-72
2021/06/18 07:27:14;;;;;;;7.63;4.28;;;14.70;99.90;;;;;;5013727;28;20041;-73
2021/06/18 07:29:41;;;;;;;11.07;4.63;;;14.70;99.90;;;;;;5013516;28;20487;-73
2021/06/18 07:32:08;;;;;;;8.13;4.50;;;14.70;99.90;;;;;;5013948;28;20093;-73
2021/06/18 07:34:33;;;;;;;10.35;4.50;;;14.70;99.90;;;;;;5013738;28;20030;-73
2021/06/18 07:36:59;;;;;;;6.63;3.60;;;14.70;99.90;;;;;;5013825;28;20033;-74
2021/06/18 07:39:25;;;;;;;8.43;3.75;;;14.90;99.90;;;;;;5013292;28;20057;-70
2021/06/18 07:41:51;;;;;;;12.07;4.45;;;15.60;99.90;;;;;;5013563;28;20033;-71
2021/06/18 07:44:17;;;;;;;7.00;4.03;;;15.70;99.90;;;;;;5013256;28;20026;-70
2021/06/18 07:46:43;;;;;;;6.28;4.47;;;15.40;99.90;;;;;;5013708;28;20577;-70
2021/06/18 07:49:08;;;;;;;8.25;4.45;;;15.30;99.90;;;;;;5013328;28;20050;-71
2021/06/18 07:51:34;;;;;;;8.43;4.75;;;15.20;99.90;;;;;;5013369;28;20125;-71
2021/06/18 07:54:00;;;;;;;12.95;5.13;;;15.10;99.90;;;;;;5013202;28;20050;-70
2021/06/18 07:56:29;;;;;;;8.00;4.15;;;15.00;99.90;;;;;;5013398;28;20101;-70
2021/06/18 07:58:55;;;;;;;7.68;4.20;;;15.10;99.90;;;;;;5033247;28;20053;-71
2021/06/18 08:01:21;;;;;;;7.68;4.40;;;15.00;99.90;;;;;;5032830;28;20049;-71
2021/06/18 08:03:48;;;;;;;7.22;4.40;;;15.00;99.90;;;;;;5033131;28;20038;-71
2021/06/18 08:06:14;;;;;;;8.13;5.18;;;14.90;99.90;;;;;;5032929;28;20025;-71
2021/06/18 08:08:41;;;;;;;12.57;5.43;;;14.90;99.90;;;;;;5032541;28;20472;-71
2021/06/18 08:11:06;;;;;;;10.38;4.68;;;14.90;99.90;;;;;;5032613;28;20040;-71
2021/06/18 08:13:32;;;;;;;8.25;5.22;;;15.00;99.90;;;;;;5032457;28;20109;-71
2021/06/18 08:15:58;;;;;;;18.92;6.85;;;15.00;99.90;;;;;;5014883;28;20021;-71
2021/06/18 08:18:24;;;;;;;9.75;5.28;;;15.00;99.90;;;;;;5032406;28;20022;-71
2021/06/18 08:20:50;;;;;;;10.52;5.43;;;15.00;99.90;;;;;;5032444;28;20094;-71
2021/06/18 08:23:15;;;;;;;8.85;5.38;;;15.00;99.90;;;;;;5032699;28;20026;-71
2021/06/18 08:25:41;;;;;;;11.75;5.60;;;15.00;99.90;;;;;;5032298;28;20169;-71
2021/06/18 08:28:08;;;;;;;9.35;5.00;;;15.00;99.90;;;;;;5032493;28;20195;-71
2021/06/18 08:30:33;;;;;;;14.30;5.30;;;15.10;99.90;;;;;;5014424;28;20030;-71
2021/06/18 08:32:59;;;;;;;32.92;9.32;;;15.10;99.90;;;;;;5032538;28;20032;-71
2021/06/18 08:35:30;;;;;;;8.93;5.22;;;15.10;99.90;;;;;;5032159;28;20392;-71
2021/06/18 08:37:56;;;;;;;10.20;4.93;;;15.10;99.90;;;;;;5032411;28;20553;-71
2021/06/18 08:40:22;;;;;;;14.77;5.85;;;15.10;99.90;;;;;;5031935;28;20480;-71
2021/06/18 08:42:49;;;;;;;11.65;5.88;;;15.10;99.90;;;;;;5032111;28;20044;-71
2021/06/18 08:45:15;;;;;;;11.80;5.30;;;15.10;99.90;;;;;;5032129;28;20026;-71
2021/06/18 08:47:41;;;;;;;14.88;5.47;;;15.20;99.90;;;;;;5032077;28;20032;-71
2021/06/18 08:50:07;;;;;;;9.85;5.18;;;15.10;99.90;;;;;;5032062;28;20596;-71
2021/06/18 08:52:39;;;;;;;9.60;5.75;;;15.10;99.90;;;;;;5010577;28;20541;-71
2021/06/18 08:55:06;;;;;;;10.38;5.07;;;15.10;99.90;;;;;;5012256;28;20037;-71
2021/06/18 08:57:32;;;;;;;9.55;5.10;;;15.10;99.90;;;;;;5012153;28;20035;-70
2021/06/18 08:59:58;;;;;;;9.27;5.05;;;15.20;99.90;;;;;;5012240;28;20048;-71
2021/06/18 09:02:24;;;;;;;7.72;5.43;;;15.20;99.90;;;;;;5027334;28;20030;-70
2021/06/18 09:05:12;;;;;;;9.00;5.40;;;15.20;99.90;;;;;;5012516;28;20052;-70
2021/06/18 09:07:47;;;;;;;12.55;5.60;;;15.20;99.90;;;;;;5012105;28;20065;-70
2021/06/18 09:10:21;;;;;;;10.07;5.13;;;15.10;99.90;;;;;;5012350;28;20123;-70
2021/06/18 09:13:11;;;;;;;7.47;4.70;;;15.10;99.90;;;;;;5012030;28;20026;-71
2021/06/18 09:15:39;;;;;;;5.55;4.32;;;15.20;99.90;;;;;;5011965;28;20030;-71
2021/06/18 09:18:30;;;;;;;6.78;3.55;;;15.20;99.90;;;;;;5012174;28;20374;-74
2021/06/18 09:21:16;;;;;;;8.65;5.32;;;15.50;99.90;;;;;;5012102;28;20037;-74
2021/06/18 09:23:47;;;;;;;9.68;5.45;;;15.70;99.90;;;;;;5012236;28;20068;-72
2021/06/18 09:26:26;;;;;;;9.98;5.18;;;15.50;99.90;;;;;;5016183;28;20041;-72
2021/06/18 09:29:03;;;;;;;14.52;8.40;;;15.40;99.90;;;;;;5014812;28;20022;-74
2021/06/18 09:31:47;;;;;;;10.75;5.93;;;15.20;99.90;;;;;;5015896;28;20483;-72
2021/06/18 09:34:14;;;;;;;8.90;6.82;;;15.20;99.90;;;;;;5014568;28;20367;-71
2021/06/18 09:36:40;;;;;;;12.50;6.30;;;15.10;99.90;;;;;;5015257;28;20354;-71
2021/06/18 09:39:13;;;;;;;8.88;6.25;;;15.10;99.90;;;;;;5015605;28;20033;-72
2021/06/18 09:41:43;;;;;;;12.27;7.03;;;15.10;99.90;;;;;;5019677;28;20041;-73
2021/06/18 09:44:18;;;;;;;10.35;6.15;;;15.10;99.90;;;;;;5015676;28;20022;-74
2021/06/18 09:46:55;;;;;;;13.32;6.60;;;15.10;99.90;;;;;;5014166;28;20033;-74
2021/06/18 09:49:41;;;;;;;9.45;6.53;;;15.10;99.90;;;;;;5015775;28;20026;-74
2021/06/18 09:52:11;;;;;;;8.68;6.20;;;15.10;99.90;;;;;;5018156;28;20045;-74
2021/06/18 09:54:40;;;;;;;;;;;15.20;99.90;;;;;;5033664;28;20112;-74
2021/06/18 09:57:13;;;;;;;12.37;6.27;;;15.20;99.90;;;;;;5024306;28;19917;-74
2021/06/18 09:59:59;;;;;;;10.18;5.90;;;15.10;99.90;;;;;;5028009;28;20116;-74
2021/06/18 10:02:40;;;;;;;8.90;5.60;;;15.10;99.90;;;;;;5034838;28;20083;-74
2021/06/18 10:05:09;;;;;;;8.18;5.35;;;15.20;99.90;;;;;;5008144;28;20026;-74
2021/06/18 10:07:35;;;;;;;7.78;5.63;;;15.20;99.90;;;;;;5014845;28;20397;-74
2021/06/18 10:10:29;;;;;;;8.85;5.47;;;15.20;99.90;;;;;;5015010;28;20025;-74
2021/06/18 10:12:56;;;;;;;11.35;5.82;;;15.20;99.90;;;;;;5004444;28;20034;-72
2021/06/18 10:15:25;;;;;;;9.57;5.32;;;15.20;99.90;;;;;;5020048;28;20077;-78
2021/06/18 10:17:53;;;;;;;7.90;5.93;;;15.20;99.90;;;;;;5028866;28;20036;-74
2021/06/18 10:20:24;;;;;;;7.72;5.32;;;15.10;99.90;;;;;;5033517;28;20040;-74
2021/06/18 10:23:01;;;;;;;10.25;5.15;;;15.10;99.90;;;;;;5034166;28;20041;-74
2021/06/18 10:25:58;;;;;;;11.70;6.75;;;15.10;99.90;;;;;;5033808;28;20513;-74
2021/06/18 10:28:28;;;;;;;11.07;5.90;;;15.10;99.90;;;;;;5014103;28;20409;-72
2021/06/18 10:30:56;;;;;;;10.20;5.85;;;15.10;99.90;;;;;;5034292;28;20021;-75
2021/06/18 10:33:28;;;;;;;11.35;5.90;;;15.10;99.90;;;;;;5033579;28;20026;-73
2021/06/18 10:36:02;;;;;;;10.18;5.70;;;15.10;99.90;;;;;;5032750;28;20392;-74
2021/06/18 10:38:43;;;;;;;11.82;5.80;;;15.20;99.90;;;;;;5033583;28;20025;-75
2021/06/18 10:41:17;;;;;;;11.85;5.63;;;15.20;99.90;;;;;;5034205;28;20040;-74
2021/06/18 10:43:47;;;;;;;9.10;5.97;;;15.10;99.90;;;;;;5023428;28;20552;-74
2021/06/18 10:46:20;;;;;;;9.93;6.07;;;15.10;99.90;;;;;;5023032;28;20030;-74
2021/06/18 10:48:52;;;;;;;12.20;6.05;;;15.10;99.90;;;;;;5022407;28;20029;-74
2021/06/18 10:51:38;;;;;;;11.93;5.47;;;15.10;99.90;;;;;;5024321;28;20021;-74
2021/06/18 10:54:44;;;;;;;7.70;6.22;;;15.10;99.90;;;;;;5007608;28;20052;-76
2021/06/18 10:57:18;;;;;;;7.80;5.82;;;15.20;99.90;;;;;;5022359;28;20057;-73
2021/06/18 10:59:48;;;;;;;11.35;6.25;;;15.20;99.90;;;;;;5031858;28;20026;-75
2021/06/18 11:02:26;;;;;;;10.25;5.68;;;15.20;99.90;;;;;;5034452;28;20017;-74
2021/06/18 11:04:57;;;;;;;9.40;5.82;;;15.20;99.90;;;;;;5033866;28;20105;-73
2021/06/18 11:07:34;;;;;;;11.38;5.93;;;15.20;99.90;;;;;;5033424;28;20477;-71
2021/06/18 11:10:06;;;;;;;9.02;5.65;;;15.20;99.90;;;;;;5033717;28;20022;-73
2021/06/18 11:12:38;;;;;;;12.15;6.57;;;15.20;99.90;;;;;;5033481;28;20025;-74
2021/06/18 11:15:11;;;;;;;10.70;6.78;;;15.30;99.90;;;;;;5033571;28;20022;-74
2021/06/18 11:17:53;;;;;;;10.07;5.72;;;15.30;99.90;;;;;;5033261;28;20036;-73
2021/06/18 11:20:23;;;;;;;8.43;4.90;;;15.40;99.90;;;;;;5033225;28;20060;-73
2021/06/18 11:23:21;;;;;;;7.03;5.45;;;15.40;99.90;;;;;;5033403;28;20078;-74
2021/06/18 11:26:08;;;;;;;6.97;5.63;;;15.40;99.90;;;;;;5015256;28;20135;-74
2021/06/18 11:28:38;;;;;;;8.82;5.80;;;15.40;99.90;;;;;;5032857;28;20108;-74
2021/06/18 11:31:12;;;;;;;7.17;5.13;;;15.40;99.90;;;;;;5032161;28;20021;-74
2021/06/18 11:33:46;;;;;;;7.70;5.30;;;15.40;99.90;;;;;;5031673;28;20310;-74
2021/06/18 11:36:20;;;;;;;8.00;5.90;;;15.50;99.90;;;;;;5032991;28;20068;-74
2021/06/18 11:38:47;;;;;;;13.48;6.65;;;15.50;99.90;;;;;;5032641;28;20082;-74
2021/06/18 11:41:18;;;;;;;9.52;6.95;;;15.50;99.90;;;;;;5033051;28;20034;-74
2021/06/18 11:43:44;;;;;;;11.63;6.93;;;15.50;99.90;;;;;;5033077;28;20052;-72
2021/06/18 11:46:10;;;;;;;8.57;6.32;;;15.50;99.90;;;;;;5032921;28;20084;-73
2021/06/18 11:48:36;;;;;;;12.40;7.28;;;15.50;99.90;;;;;;5014573;28;20537;-72
2021/06/18 11:51:03;;;;;;;10.52;7.28;;;15.50;99.90;;;;;;5032653;28;20080;-73
2021/06/18 11:53:40;;;;;;;12.23;7.28;;;15.50;99.90;;;;;;5032557;28;20045;-73
2021/06/18 11:56:07;;;;;;;11.23;6.97;;;15.60;99.90;;;;;;5032808;28;20025;-73
2021/06/18 11:58:42;;;;;;;11.25;7.90;;;15.60;99.90;;;;;;5032545;28;20017;-73
2021/06/18 12:01:15;;;;;;;10.93;7.28;;;15.70;99.90;;;;;;5012742;28;20405;-72
2021/06/18 12:03:43;;;;;;;9.20;6.85;;;15.70;99.90;;;;;;5028078;28;20025;-72
2021/06/18 12:06:22;;;;;;;12.57;6.28;;;15.70;99.90;;;;;;5032337;28;20119;-73
2021/06/18 12:09:09;;;;;;;11.32;7.40;;;16.00;99.90;;;;;;5030968;28;20061;-72
2021/06/18 12:11:38;;;;;;;14.30;7.40;;;16.00;99.90;;;;;;5032636;28;20030;-72
2021/06/18 12:14:06;;;;;;;14.98;7.25;;;16.00;99.90;;;;;;5032708;28;20017;-71
2021/06/18 12:16:37;;;;;;;12.68;7.53;;;16.00;99.90;;;;;;5032333;28;20038;-71
2021/06/18 12:19:26;;;;;;;10.13;7.15;;;15.90;99.90;;;;;;5032344;28;20025;-72
2021/06/18 12:22:03;;;;;;;8.68;6.38;;;15.90;99.90;;;;;;5032487;28;20112;-73
2021/06/18 12:24:37;;;;;;;16.45;7.57;;;15.90;99.90;;;;;;5032436;28;20551;-74
2021/06/18 12:27:07;;;;;;;11.00;6.95;;;15.90;99.90;;;;;;5032323;28;20099;-74
2021/06/18 12:29:36;;;;;;;10.48;6.43;;;16.00;99.90;;;;;;5032027;28;20025;-70
2021/06/18 12:32:01;;;;;;;13.10;7.10;;;16.00;99.90;;;;;;5032252;28;20026;-74
2021/06/18 12:34:28;;;;;;;11.88;7.93;;;16.20;99.90;;;;;;5032111;28;20393;-74
2021/06/18 12:37:03;;;;;;;14.80;8.00;;;16.20;99.90;;;;;;5032011;28;20026;-73
2021/06/18 12:39:29;;;;;;;11.10;7.30;;;16.20;99.90;;;;;;5022773;28;20033;-74
2021/06/18 12:41:55;;;;;;;11.25;6.97;;;16.20;99.90;;;;;;5019752;28;20021;-74
2021/06/18 12:44:32;;;;;;;9.85;7.07;;;16.20;99.90;;;;;;5012470;28;20025;-74
2021/06/18 12:46:59;;;;;;;10.50;7.13;;;16.20;99.90;;;;;;5028436;28;20504;-76
2021/06/18 12:49:30;;;;;;;17.80;8.10;;;16.20;99.90;;;;;;5031785;28;20024;-74
2021/06/18 12:52:10;;;;;;;12.65;6.95;;;16.20;99.90;;;;;;5031682;28;20108;-74
2021/06/18 12:54:36;;;;;;;15.75;7.40;;;16.20;99.90;;;;;;5031835;28;20067;-74
2021/06/18 12:57:03;;;;;;;13.38;7.63;;;16.20;99.90;;;;;;5031858;28;20077;-74
2021/06/18 12:59:37;;;;;;;12.77;7.78;;;16.30;99.90;;;;;;5030749;28;20084;-75
2021/06/18 13:02:03;;;;;;;12.85;6.97;;;16.30;99.90;;;;;;5032032;28;20113;-75
2021/06/18 13:04:34;;;;;;;14.80;7.93;;;16.30;99.90;;;;;;5031622;28;20116;-74
2021/06/18 13:07:00;;;;;;;10.25;6.85;;;16.30;99.90;;;;;;5031877;28;20032;-75
2021/06/18 13:09:34;;;;;;;11.30;7.20;;;16.40;99.90;;;;;;5031675;28;20486;-74
2021/06/18 13:12:00;;;;;;;10.75;6.65;;;16.40;99.90;;;;;;5032099;28;20025;-76
2021/06/18 13:14:27;;;;;;;7.90;6.07;;;16.50;99.90;;;;;;5031985;28;20029;-74
2021/06/18 13:17:03;;;;;;;10.60;6.35;;;16.50;99.90;;;;;;5031920;28;20036;-76
2021/06/18 13:19:45;;;;;;;9.65;6.30;;;16.50;99.90;;;;;;5031632;28;20026;-74
2021/06/18 13:22:21;;;;;;;9.43;6.95;;;16.50;99.90;;;;;;5031777;28;20060;-75
2021/06/18 13:24:55;;;;;;;11.93;6.60;;;16.50;99.90;;;;;;5030319;28;20553;-75
2021/06/18 13:27:23;;;;;;;9.75;6.65;;;16.60;99.90;;;;;;5031412;28;20087;-75